createdAt,value
2019-05-23T00:02:05.680Z,99882.36
2019-05-23T00:04:21.008Z,99886.81
2019-05-23T00:06:28.966Z,99889.66
2019-05-23T00:08:38.128Z,99891.56
2019-05-23T00:10:53.839Z,99887.83
2019-05-23T00:13:04.488Z,99887.03
2019-05-23T00:15:20.914Z,99890.52
2019-05-23T00:17:29.886Z,99888.73
2019-05-23T00:19:38.545Z,99893.45
2019-05-23T00:21:46.422Z,99894.31
2019-05-23T00:23:54.927Z,99889.34
2019-05-23T00:26:04.872Z,99884.87
2019-05-23T00:28:13.124Z,99887.16
2019-05-23T00:30:30.114Z,99891.38
2019-05-23T00:32:43.544Z,99892.13
2019-05-23T00:34:53.646Z,99882.13
2019-05-23T00:37:02.582Z,99891.83
2019-05-23T00:39:11.935Z,99885.84
2019-05-23T00:41:21.376Z,99888.91
2019-05-23T00:43:31.114Z,99893.81
2019-05-23T00:45:39.311Z,99889.42
2019-05-23T00:47:48.029Z,99896.03
2019-05-23T00:49:56.207Z,99893.13
2019-05-23T00:52:03.849Z,99898.68
2019-05-23T00:54:11.531Z,99897.73
2019-05-23T00:56:20.639Z,99891.73
2019-05-23T00:58:30.052Z,99905.20
2019-05-23T01:00:39.686Z,99903.97
2019-05-23T01:02:48.113Z,99914.78
2019-05-23T01:04:56.267Z,99904.30
2019-05-23T01:07:04.216Z,99899.64
2019-05-23T01:09:13.497Z,99904.13
2019-05-23T01:11:21.765Z,99911.81
2019-05-23T01:13:30.134Z,99908.68
2019-05-23T01:15:39.922Z,99910.26
2019-05-23T01:17:48.936Z,99908.84
2019-05-23T01:19:57.126Z,99909.25
2019-05-23T01:22:07.980Z,99910.93
2019-05-23T01:24:22.593Z,99910.50
2019-05-23T01:26:30.341Z,99909.18
2019-05-23T01:28:37.832Z,99906.12
2019-05-23T01:30:47.973Z,99914.45
2019-05-23T01:32:57.521Z,99914.86
2019-05-23T01:35:07.469Z,99913.80
2019-05-23T01:37:15.989Z,99912.72
2019-05-23T01:39:23.424Z,99908.85
2019-05-23T01:41:31.975Z,99909.82
2019-05-23T01:43:40.138Z,99911.89
2019-05-23T01:45:48.349Z,99911.17
2019-05-23T01:47:56.379Z,99915.37
2019-05-23T01:50:04.779Z,99919.39
2019-05-23T01:52:13.565Z,99913.13
2019-05-23T01:54:22.387Z,99915.20
2019-05-23T01:56:30.737Z,99924.46
2019-05-23T01:58:38.578Z,99920.34
2019-05-23T02:00:47.563Z,99915.42
2019-05-23T02:02:56.179Z,99916.16
2019-05-23T02:05:04.857Z,99914.55
2019-05-23T02:07:13.964Z,99915.42
2019-05-23T02:09:21.505Z,99913.36
2019-05-23T02:11:30.133Z,99918.42
2019-05-23T02:13:38.035Z,99918.08
2019-05-23T02:15:45.921Z,99921.41
2019-05-23T02:17:54.277Z,99916.95
2019-05-23T02:20:02.589Z,99922.98
2019-05-23T02:22:10.763Z,99920.34
2019-05-23T02:24:18.635Z,99926.47
2019-05-23T02:26:26.991Z,99925.10
2019-05-23T02:28:36.024Z,99928.20
2019-05-23T02:30:44.018Z,99928.94
2019-05-23T02:32:53.027Z,99929.17
2019-05-23T02:35:00.551Z,99934.63
2019-05-23T02:37:17.188Z,99936.09
2019-05-23T02:39:42.499Z,99931.74
2019-05-23T02:42:08.694Z,99930.80
2019-05-23T02:44:23.766Z,99938.11
2019-05-23T02:46:38.467Z,99941.23
2019-05-23T02:48:48.657Z,99951.02
2019-05-23T02:51:02.834Z,99939.25
2019-05-23T02:53:15.091Z,99948.58
2019-05-23T02:55:36.153Z,99948.67
2019-05-23T02:57:47.148Z,99946.08
2019-05-23T03:00:01.235Z,99954.86
2019-05-23T03:03:02.689Z,99957.03
2019-05-23T03:05:14.231Z,99953.74
2019-05-23T03:07:26.870Z,99956.19
2019-05-23T03:09:39.406Z,99959.42
2019-05-23T03:11:49.293Z,99960.52
2019-05-23T03:13:58.047Z,99953.16
2019-05-23T03:16:07.938Z,99944.67
2019-05-23T03:18:18.067Z,99952.52
2019-05-23T03:20:26.695Z,99951.93
2019-05-23T03:22:49.141Z,99950.61
2019-05-23T03:24:59.794Z,99952.19
2019-05-23T03:27:15.495Z,99952.05
2019-05-23T03:29:23.892Z,99945.58
2019-05-23T03:31:37.113Z,99955.59
2019-05-23T03:33:46.009Z,99952.34
2019-05-23T03:35:57.080Z,99963.33
2019-05-23T03:38:05.672Z,99961.38
2019-05-23T03:40:15.397Z,99962.46
2019-05-23T03:42:23.921Z,99963.33
2019-05-23T03:44:31.689Z,99964.91
2019-05-23T03:46:44.757Z,99968.05
2019-05-23T03:48:53.321Z,99968.39
2019-05-23T03:51:03.039Z,99966.62
2019-05-23T03:53:10.955Z,99964.47
2019-05-23T03:55:20.057Z,99969.17
2019-05-23T03:57:28.708Z,99970.86
2019-05-23T03:59:36.242Z,99963.74
2019-05-23T04:01:49.022Z,99962.84
2019-05-23T04:03:58.903Z,99963.98
2019-05-23T04:06:07.119Z,99967.80
2019-05-23T04:08:15.534Z,99968.05
2019-05-23T04:10:23.828Z,99965.50
2019-05-23T04:12:31.640Z,99963.13
2019-05-23T04:14:39.566Z,99965.89
2019-05-23T04:16:47.949Z,99964.95
2019-05-23T04:18:55.413Z,99966.62
2019-05-23T04:21:03.396Z,99967.61
2019-05-23T04:23:11.326Z,99963.39
2019-05-23T04:25:19.425Z,99957.39
2019-05-23T04:27:27.615Z,99962.25
2019-05-23T04:29:35.147Z,99964.41
2019-05-23T04:31:42.942Z,99969.61
2019-05-23T04:33:50.699Z,99964.80
2019-05-23T04:35:58.110Z,99972.79
2019-05-23T04:38:06.131Z,99964.24
2019-05-23T04:40:15.772Z,99971.47
2019-05-23T04:42:23.844Z,99979.08
2019-05-23T04:44:31.474Z,99977.41
2019-05-23T04:46:39.165Z,99984.03
2019-05-23T04:48:46.784Z,99984.31
2019-05-23T04:50:54.423Z,99988.78
2019-05-23T04:53:02.515Z,99983.96
2019-05-23T04:55:12.184Z,99987.48
2019-05-23T04:57:21.123Z,99986.48
2019-05-23T04:59:28.958Z,99990.59
2019-05-23T05:01:37.467Z,99987.34
2019-05-23T05:03:47.098Z,99987.23
2019-05-23T05:05:54.932Z,99997.02
2019-05-23T05:08:02.509Z,100002.59
2019-05-23T05:10:13.468Z,100003.78
2019-05-23T05:12:22.624Z,100005.84
2019-05-23T05:14:30.379Z,100001.89
2019-05-23T05:16:37.991Z,100013.69
2019-05-23T05:18:45.443Z,100013.37
2019-05-23T05:20:53.121Z,100018.19
2019-05-23T05:23:01.017Z,100014.34
2019-05-23T05:25:10.837Z,100008.67
2019-05-23T05:27:19.769Z,100010.63
2019-05-23T05:29:27.630Z,100015.46
2019-05-23T05:31:35.020Z,100012.34
2019-05-23T05:33:42.702Z,100007.87
2019-05-23T05:35:50.578Z,100011.91
2019-05-23T05:37:58.602Z,100018.64
2019-05-23T05:40:07.506Z,100015.03
2019-05-23T05:42:15.090Z,100015.29
2019-05-23T05:44:22.674Z,100017.95
2019-05-23T05:46:30.820Z,100030.63
2019-05-23T05:48:38.516Z,100025.06
2019-05-23T05:50:46.211Z,100022.27
2019-05-23T05:52:54.128Z,100019.52
2019-05-23T05:55:01.916Z,100020.47
2019-05-23T05:57:09.937Z,100029.64
2019-05-23T05:59:17.728Z,100025.55
2019-05-23T06:01:33.948Z,100031.59
2019-05-23T06:03:34.857Z,100032.91
2019-05-23T06:05:58.704Z,100032.30
2019-05-23T06:08:08.164Z,100032.55
2019-05-23T06:10:17.205Z,100031.71
2019-05-23T06:12:25.472Z,100033.52
2019-05-23T06:14:33.328Z,100036.30
2019-05-23T06:16:43.129Z,100041.61
2019-05-23T06:18:50.730Z,100039.19
2019-05-23T06:20:59.583Z,100045.92
2019-05-23T06:23:07.019Z,100043.35
2019-05-23T06:25:15.176Z,100040.31
2019-05-23T06:27:23.238Z,100037.64
2019-05-23T06:29:30.887Z,100036.98
2019-05-23T06:31:39.276Z,100042.25
2019-05-23T06:33:47.792Z,100036.21
2019-05-23T06:35:55.915Z,100039.81
2019-05-23T06:38:03.441Z,100046.80
2019-05-23T06:40:12.635Z,100040.52
2019-05-23T06:42:20.663Z,100048.02
2019-05-23T06:44:28.361Z,100042.47
2019-05-23T06:46:36.126Z,100047.17
2019-05-23T06:48:45.694Z,100056.02
2019-05-23T06:50:52.966Z,100062.67
2019-05-23T06:53:01.224Z,100055.30
2019-05-23T06:55:09.209Z,100060.48
2019-05-23T06:57:17.922Z,100061.44
2019-05-23T06:59:25.532Z,100058.55
2019-05-23T07:01:33.580Z,100063.38
2019-05-23T07:03:43.641Z,100065.88
2019-05-23T07:05:51.229Z,100068.91
2019-05-23T07:07:58.892Z,100062.42
2019-05-23T07:10:08.661Z,100069.80
2019-05-23T07:12:16.768Z,100067.98
2019-05-23T07:14:24.595Z,100074.22
2019-05-23T07:16:32.106Z,100073.61
2019-05-23T07:18:40.863Z,100078.94
2019-05-23T07:20:48.418Z,100082.11
2019-05-23T07:22:56.078Z,100084.59
2019-05-23T07:25:03.829Z,100089.44
2019-05-23T07:27:11.818Z,100093.33
2019-05-23T07:29:20.017Z,100093.11
2019-05-23T07:31:27.554Z,100089.50
2019-05-23T07:33:35.180Z,100090.10
2019-05-23T07:35:42.940Z,100096.58
2019-05-23T07:37:50.739Z,100092.15
2019-05-23T07:39:58.553Z,100088.46
2019-05-23T07:42:06.630Z,100090.61
2019-05-23T07:44:14.635Z,100093.22
2019-05-23T07:46:22.307Z,100098.42
2019-05-23T07:48:30.987Z,100104.49
2019-05-23T07:50:38.409Z,100102.92
2019-05-23T07:52:46.475Z,100106.14
2019-05-23T07:55:08.393Z,100107.26
2019-05-23T07:57:16.765Z,100105.26
2019-05-23T07:59:24.560Z,100107.31
2019-05-23T08:01:34.230Z,100105.98
2019-05-23T08:03:42.072Z,100102.61
2019-05-23T08:05:49.616Z,100113.66
2019-05-23T08:07:57.697Z,100111.84
2019-05-23T08:10:06.981Z,100105.33
2019-05-23T08:12:14.903Z,100107.12
2019-05-23T08:14:22.961Z,100111.98
2019-05-23T08:16:30.989Z,100113.32
2019-05-23T08:18:39.391Z,100114.01
2019-05-23T08:20:48.512Z,100107.72
2019-05-23T08:22:56.085Z,100112.78
2019-05-23T08:25:03.826Z,100114.48
2019-05-23T08:27:12.289Z,100119.44
2019-05-23T08:29:27.692Z,100122.00
2019-05-23T08:31:29.876Z,100120.66
2019-05-23T08:33:38.224Z,100121.38
2019-05-23T08:35:46.587Z,100122.49
2019-05-23T08:37:55.043Z,100125.14
2019-05-23T08:40:03.152Z,100128.02
2019-05-23T08:42:10.708Z,100123.09
2019-05-23T08:44:19.039Z,100123.53
2019-05-23T08:46:27.003Z,100123.30
2019-05-23T08:48:34.978Z,100125.09
2019-05-23T08:50:42.586Z,100123.39
2019-05-23T08:52:50.300Z,100128.84
2019-05-23T08:55:03.414Z,100124.80
2019-05-23T08:57:13.020Z,100125.50
2019-05-23T08:59:20.785Z,100119.38
2019-05-23T09:01:29.224Z,100119.56
2019-05-23T09:03:37.522Z,100121.23
2019-05-23T09:05:47.282Z,100118.77
2019-05-23T09:07:56.034Z,100121.64
2019-05-23T09:10:04.460Z,100116.62
2019-05-23T09:12:12.437Z,100110.17
2019-05-23T09:14:20.726Z,100105.98
2019-05-23T09:16:28.454Z,100110.56
2019-05-23T09:18:36.095Z,100114.78
2019-05-23T09:20:43.746Z,100108.33
2019-05-23T09:22:51.817Z,100116.33
2019-05-23T09:24:59.314Z,100117.60
2019-05-23T09:27:07.702Z,100121.02
2019-05-23T09:29:15.471Z,100111.97
2019-05-23T09:31:24.700Z,100120.12
2019-05-23T09:33:32.447Z,100122.80
2019-05-23T09:35:40.424Z,100130.14
2019-05-23T09:37:49.257Z,100125.95
2019-05-23T09:39:57.698Z,100126.35
2019-05-23T09:42:05.657Z,100127.80
2019-05-23T09:44:13.457Z,100130.38
2019-05-23T09:46:21.400Z,100125.88
2019-05-23T09:48:29.728Z,100131.31
2019-05-23T09:50:37.452Z,100121.64
2019-05-23T09:52:45.207Z,100125.27
2019-05-23T09:54:52.679Z,100115.59
2019-05-23T09:57:00.470Z,100116.28
2019-05-23T09:59:09.040Z,100119.25
2019-05-23T10:01:18.993Z,100115.47
2019-05-23T10:03:26.606Z,100115.56
2019-05-23T10:05:42.892Z,100121.02
2019-05-23T10:07:43.518Z,100128.09
2019-05-23T10:09:51.336Z,100118.14
2019-05-23T10:11:59.154Z,100113.84
2019-05-23T10:14:11.239Z,100110.33
2019-05-23T10:16:19.116Z,100113.30
2019-05-23T10:18:26.685Z,100109.55
2019-05-23T10:20:36.159Z,100121.55
2019-05-23T10:22:43.673Z,100116.67
2019-05-23T10:24:51.571Z,100119.30
2019-05-23T10:26:59.359Z,100115.25
2019-05-23T10:29:07.171Z,100112.70
2019-05-23T10:31:15.477Z,100098.45
2019-05-23T10:33:23.086Z,100093.81
2019-05-23T10:35:31.597Z,100087.43
2019-05-23T10:37:39.145Z,100098.73
2019-05-23T10:39:53.752Z,100102.05
2019-05-23T10:42:01.367Z,100115.23
2019-05-23T10:44:09.417Z,100112.63
2019-05-23T10:46:17.170Z,100119.43
2019-05-23T10:48:25.723Z,100125.72
2019-05-23T10:50:44.317Z,100131.80
2019-05-23T10:52:42.918Z,100127.09
2019-05-23T10:54:50.456Z,100126.23
2019-05-23T10:56:58.126Z,100134.95
2019-05-23T10:59:06.920Z,100132.63
2019-05-23T11:01:15.278Z,100134.58
2019-05-23T11:03:24.239Z,100133.64
2019-05-23T11:05:31.963Z,100131.38
2019-05-23T11:07:40.163Z,100126.39
2019-05-23T11:09:48.040Z,100121.14
2019-05-23T11:11:55.842Z,100125.73
2019-05-23T11:14:08.247Z,100126.03
2019-05-23T11:16:13.631Z,100128.20
2019-05-23T11:18:21.785Z,100130.48
2019-05-23T11:20:29.612Z,100133.97
2019-05-23T11:22:37.258Z,100128.23
2019-05-23T11:24:44.961Z,100125.34
2019-05-23T11:26:53.073Z,100140.50
2019-05-23T11:29:01.287Z,100138.28
2019-05-23T11:31:10.808Z,100134.38
2019-05-23T11:33:19.372Z,100146.27
2019-05-23T11:35:27.607Z,100144.84
2019-05-23T11:37:35.453Z,100141.22
2019-05-23T11:39:49.587Z,100136.52
2019-05-23T11:41:52.873Z,100128.72
2019-05-23T11:44:00.638Z,100128.25
2019-05-23T11:46:21.684Z,100129.88
2019-05-23T11:48:30.106Z,100134.69
2019-05-23T11:50:37.526Z,100138.66
2019-05-23T11:52:45.321Z,100134.34
2019-05-23T11:54:53.388Z,100138.69
2019-05-23T11:57:01.623Z,100139.68
2019-05-23T11:59:09.353Z,100143.77
2019-05-23T12:01:22.454Z,100159.70
2019-05-23T12:03:30.376Z,100153.61
2019-05-23T12:05:38.106Z,100157.64
2019-05-23T12:07:47.096Z,100156.77
2019-05-23T12:09:54.825Z,100158.44
2019-05-23T12:12:02.736Z,100151.84
2019-05-23T12:14:11.586Z,100155.39
2019-05-23T12:16:21.867Z,100155.90
2019-05-23T12:18:29.653Z,100151.63
2019-05-23T12:20:37.134Z,100151.44
2019-05-23T12:22:44.860Z,100152.29
2019-05-23T12:24:52.455Z,100149.39
2019-05-23T12:27:00.031Z,100154.33
2019-05-23T12:29:07.872Z,100147.95
2019-05-23T12:31:16.096Z,100151.34
2019-05-23T12:33:23.720Z,100149.81
2019-05-23T12:35:31.399Z,100151.53
2019-05-23T12:37:39.130Z,100147.19
2019-05-23T12:39:46.713Z,100156.04
2019-05-23T12:41:54.213Z,100157.84
2019-05-23T12:44:02.270Z,100161.23
2019-05-23T12:46:10.167Z,100153.71
2019-05-23T12:48:27.263Z,100156.86
2019-05-23T12:50:41.043Z,100149.00
2019-05-23T12:52:50.090Z,100155.27
2019-05-23T12:54:57.538Z,100150.10
2019-05-23T12:57:06.045Z,100152.30
2019-05-23T12:59:14.802Z,100160.24
2019-05-23T13:01:24.801Z,100163.02
2019-05-23T13:03:33.461Z,100175.59
2019-05-23T13:05:42.270Z,100174.27
2019-05-23T13:07:50.339Z,100184.19
2019-05-23T13:09:58.297Z,100176.31
2019-05-23T13:12:06.334Z,100171.95
2019-05-23T13:14:14.949Z,100164.47
2019-05-23T13:16:22.961Z,100156.30
2019-05-23T13:18:31.026Z,100149.01
2019-05-23T13:20:38.991Z,100146.47
2019-05-23T13:22:47.071Z,100141.98
2019-05-23T13:24:54.979Z,100135.67
2019-05-23T13:27:03.607Z,100137.34
2019-05-23T13:29:11.735Z,100143.02
2019-05-23T13:31:21.403Z,100144.46
2019-05-23T13:33:29.544Z,100140.96
2019-05-23T13:35:37.322Z,100147.99
2019-05-23T13:37:53.799Z,100154.38
2019-05-23T13:39:54.856Z,100153.51
2019-05-23T13:42:02.699Z,100174.80
2019-05-23T13:44:29.608Z,100181.23
2019-05-23T13:46:20.602Z,100192.75
2019-05-23T13:48:28.920Z,100191.91
2019-05-23T13:50:37.940Z,100192.02
2019-05-23T13:52:46.619Z,100199.78
2019-05-23T13:54:54.563Z,100198.10
2019-05-23T13:57:02.740Z,100199.78
2019-05-23T13:59:11.241Z,100209.67
2019-05-23T14:01:20.125Z,100210.28
2019-05-23T14:03:28.368Z,100217.05
2019-05-23T14:05:36.322Z,100205.95
2019-05-23T14:07:44.197Z,100204.73
2019-05-23T14:09:52.350Z,100198.22
2019-05-23T14:12:20.090Z,100201.22
2019-05-23T14:14:11.684Z,100199.89
2019-05-23T14:16:19.689Z,100192.78
2019-05-23T14:18:28.645Z,100188.52
2019-05-23T14:20:36.569Z,100195.78
2019-05-23T14:22:49.492Z,100194.94
2019-05-23T14:24:58.485Z,100199.92
2019-05-23T14:27:16.928Z,100203.19
2019-05-23T14:29:24.766Z,100205.97
2019-05-23T14:31:38.534Z,100203.30
2019-05-23T14:34:11.414Z,100202.08
2019-05-23T14:36:35.992Z,100199.68
2019-05-23T14:38:44.902Z,100200.28
2019-05-23T14:40:53.058Z,100200.28
2019-05-23T14:43:12.580Z,100193.63
2019-05-23T14:45:42.626Z,100188.92
2019-05-23T14:48:11.711Z,100192.06
2019-05-23T14:50:34.361Z,100193.28
2019-05-23T14:52:44.070Z,100188.08
2019-05-23T14:54:56.257Z,100193.05
2019-05-23T14:57:05.586Z,100194.95
2019-05-23T14:59:13.492Z,100192.28
2019-05-23T15:01:21.408Z,100192.93
2019-05-23T15:03:30.263Z,100202.70
2019-05-23T15:05:39.725Z,100203.69
2019-05-23T15:07:47.337Z,100202.36
2019-05-23T15:09:55.193Z,100209.36
2019-05-23T15:12:02.910Z,100210.57
2019-05-23T15:14:10.778Z,100216.00
2019-05-23T15:16:21.116Z,100214.67
2019-05-23T15:18:28.739Z,100213.00
2019-05-23T15:20:36.262Z,100214.56
2019-05-23T15:22:44.057Z,100213.72
2019-05-23T15:24:51.745Z,100220.23
2019-05-23T15:26:59.539Z,100217.22
2019-05-23T15:29:10.227Z,100220.48
2019-05-23T15:31:18.326Z,100222.64
2019-05-23T15:33:26.126Z,100223.48
2019-05-23T15:35:34.884Z,100230.36
2019-05-23T15:37:42.853Z,100237.98
2019-05-23T15:39:50.867Z,100242.45
2019-05-23T15:41:58.341Z,100248.75
2019-05-23T15:44:22.696Z,100245.95
2019-05-23T15:46:15.971Z,100249.48
2019-05-23T15:48:23.757Z,100256.13
2019-05-23T15:50:37.786Z,100253.82
2019-05-23T15:53:10.422Z,100261.45
2019-05-23T15:55:36.650Z,100262.05
2019-05-23T15:57:49.413Z,100259.39
2019-05-23T16:00:15.921Z,100262.41
2019-05-23T16:02:28.190Z,100260.94
2019-05-23T16:04:36.965Z,100256.97
2019-05-23T16:06:45.116Z,100258.05
2019-05-23T16:09:25.611Z,100257.33
2019-05-23T16:11:19.781Z,100259.11
2019-05-23T16:13:29.408Z,100264.19
2019-05-23T16:15:37.388Z,100271.81
2019-05-23T16:17:45.478Z,100272.42
2019-05-23T16:19:53.617Z,100273.15
2019-05-23T16:22:01.530Z,100272.77
2019-05-23T16:24:09.898Z,100277.14
2019-05-23T16:26:18.285Z,100283.89
2019-05-23T16:28:26.140Z,100281.34
2019-05-23T16:30:34.611Z,100287.98
2019-05-23T16:32:42.241Z,100288.72
2019-05-23T16:34:49.999Z,100290.78
2019-05-23T16:36:57.873Z,100293.80
2019-05-23T16:39:08.181Z,100286.90
2019-05-23T16:41:16.230Z,100307.20
2019-05-23T16:43:23.935Z,100302.86
2019-05-23T16:45:32.224Z,100313.00
2019-05-23T16:47:39.852Z,100314.44
2019-05-23T16:49:47.892Z,100312.14
2019-05-23T16:51:56.046Z,100315.53
2019-05-23T16:54:05.255Z,100313.33
2019-05-23T16:56:21.582Z,100312.14
2019-05-23T16:58:49.344Z,100311.75
2019-05-23T17:01:24.053Z,100311.27
2019-05-23T17:03:38.362Z,100307.28
2019-05-23T17:06:07.478Z,100300.77
2019-05-23T17:08:31.308Z,100296.78
2019-05-23T17:11:02.086Z,100295.07
2019-05-23T17:13:34.574Z,100296.19
2019-05-23T17:16:07.268Z,100298.60
2019-05-23T17:18:39.613Z,100298.70
2019-05-23T17:20:58.934Z,100288.78
2019-05-23T17:23:16.569Z,100292.52
2019-05-23T17:25:46.941Z,100294.20
2019-05-23T17:28:13.481Z,100299.66
2019-05-23T17:30:47.363Z,100294.58
2019-05-23T17:32:56.738Z,100298.19
2019-05-23T17:35:05.147Z,100301.83
2019-05-23T17:37:14.584Z,100303.16
2019-05-23T17:39:24.182Z,100300.98
2019-05-23T17:41:32.347Z,100299.66
2019-05-23T17:43:40.032Z,100298.92
2019-05-23T17:45:48.438Z,100300.63
2019-05-23T17:47:58.208Z,100303.64
2019-05-23T17:50:09.360Z,100302.56
2019-05-23T17:52:18.149Z,100300.49
2019-05-23T17:54:26.514Z,100304.83
2019-05-23T17:56:34.036Z,100305.32
2019-05-23T17:58:42.153Z,100297.34
2019-05-23T18:00:51.094Z,100303.89
2019-05-23T18:02:59.297Z,100304.48
2019-05-23T18:05:08.511Z,100299.27
2019-05-23T18:07:17.834Z,100297.10
2019-05-23T18:09:25.973Z,100289.13
2019-05-23T18:11:35.428Z,100287.31
2019-05-23T18:13:46.060Z,100297.20
2019-05-23T18:15:56.049Z,100294.55
2019-05-23T18:18:04.526Z,100284.97
2019-05-23T18:20:14.474Z,100287.00
2019-05-23T18:22:22.774Z,100279.17
2019-05-23T18:24:31.702Z,100285.80
2019-05-23T18:26:39.500Z,100284.69
2019-05-23T18:28:47.621Z,100285.28
2019-05-23T18:31:07.412Z,100279.86
2019-05-23T18:33:13.527Z,100299.09
2019-05-23T18:35:21.797Z,100296.54
2019-05-23T18:37:29.984Z,100291.56
2019-05-23T18:39:38.598Z,100304.36
2019-05-23T18:41:48.043Z,100301.95
2019-05-23T18:43:57.072Z,100305.06
2019-05-23T18:46:08.915Z,100309.92
2019-05-23T18:48:16.865Z,100307.72
2019-05-23T18:50:25.611Z,100313.27
2019-05-23T18:52:34.337Z,100306.67
2019-05-23T18:54:42.665Z,100313.27
2019-05-23T18:56:51.258Z,100309.88
2019-05-23T18:58:59.824Z,100313.16
2019-05-23T19:01:35.511Z,100319.22
2019-05-23T19:03:44.735Z,100322.71
2019-05-23T19:05:53.031Z,100320.41
2019-05-23T19:08:01.609Z,100319.56
2019-05-23T19:10:10.396Z,100318.82
2019-05-23T19:12:18.702Z,100322.56
2019-05-23T19:14:27.594Z,100331.82
2019-05-23T19:16:37.062Z,100323.73
2019-05-23T19:18:45.677Z,100328.17
2019-05-23T19:20:55.569Z,100329.30
2019-05-23T19:23:03.932Z,100321.54
2019-05-23T19:25:13.140Z,100333.14
2019-05-23T19:27:21.224Z,100334.31
2019-05-23T19:29:29.465Z,100335.41
2019-05-23T19:31:38.039Z,100337.02
2019-05-23T19:33:49.358Z,100343.03
2019-05-23T19:35:58.939Z,100338.00
2019-05-23T19:38:07.111Z,100344.27
2019-05-23T19:40:16.947Z,100343.67
2019-05-23T19:42:25.215Z,100349.22
2019-05-23T19:44:33.500Z,100347.51
2019-05-23T19:46:42.389Z,100350.55
2019-05-23T19:48:51.153Z,100352.08
2019-05-23T19:50:58.972Z,100348.98
2019-05-23T19:53:07.391Z,100346.42
2019-05-23T19:55:15.916Z,100351.14
2019-05-23T19:57:24.074Z,100345.09
2019-05-23T19:59:34.757Z,100346.62
2019-05-23T20:02:01.314Z,100347.00
2019-05-23T20:04:10.556Z,100345.58
2019-05-23T20:06:19.098Z,100343.97
2019-05-23T20:08:27.373Z,100348.92
2019-05-23T20:10:36.847Z,100340.31
2019-05-23T20:12:45.106Z,100344.55
2019-05-23T20:14:53.113Z,100351.81
2019-05-23T20:17:01.156Z,100344.69
2019-05-23T20:19:09.786Z,100341.39
2019-05-23T20:21:18.677Z,100348.52
2019-05-23T20:23:26.609Z,100350.33
2019-05-23T20:25:34.709Z,100341.30
2019-05-23T20:27:42.896Z,100343.61
2019-05-23T20:29:51.289Z,100337.66
2019-05-23T20:31:58.954Z,100337.81
2019-05-23T20:34:07.786Z,100344.05
2019-05-23T20:36:17.868Z,100340.95
2019-05-23T20:38:26.728Z,100337.36
2019-05-23T20:40:35.720Z,100330.00
2019-05-23T20:42:43.937Z,100339.58
2019-05-23T20:44:51.969Z,100329.27
2019-05-23T20:46:59.890Z,100337.97
2019-05-23T20:49:08.876Z,100336.13
2019-05-23T20:51:17.060Z,100335.16
2019-05-23T20:53:25.288Z,100340.37
2019-05-23T20:55:33.598Z,100335.55
2019-05-23T20:57:41.282Z,100336.82
2019-05-23T20:59:49.185Z,100349.84
2019-05-23T21:01:56.782Z,100346.11
2019-05-23T21:04:06.018Z,100342.37
2019-05-23T21:06:15.204Z,100350.94
2019-05-23T21:08:23.556Z,100352.52
2019-05-23T21:10:50.190Z,100356.39
2019-05-23T21:12:57.721Z,100365.01
2019-05-23T21:15:05.636Z,100358.95
2019-05-23T21:17:13.550Z,100363.30
2019-05-23T21:19:21.044Z,100363.14
2019-05-23T21:21:28.696Z,100362.54
2019-05-23T21:23:36.927Z,100362.84
2019-05-23T21:26:01.333Z,100352.91
2019-05-23T21:28:09.559Z,100362.77
2019-05-23T21:30:17.541Z,100367.02
2019-05-23T21:32:25.336Z,100375.50
2019-05-23T21:34:33.438Z,100363.70
2019-05-23T21:36:40.920Z,100364.88
2019-05-23T21:38:48.726Z,100369.98
2019-05-23T21:40:56.511Z,100369.02
2019-05-23T21:43:04.840Z,100367.96
2019-05-23T21:45:13.289Z,100374.02
2019-05-23T21:47:20.825Z,100379.22
2019-05-23T21:49:29.269Z,100375.92
2019-05-23T21:51:37.002Z,100376.58
2019-05-23T21:53:44.481Z,100381.89
2019-05-23T21:55:52.419Z,100377.42
2019-05-23T21:58:00.302Z,100380.05
2019-05-23T22:00:12.263Z,100378.14
2019-05-23T22:02:26.730Z,100377.23
2019-05-23T22:05:03.052Z,100377.14
2019-05-23T22:07:10.782Z,100381.86
2019-05-23T22:09:18.553Z,100393.57
2019-05-23T22:11:27.432Z,100396.13
2019-05-23T22:13:35.173Z,100397.29
2019-05-23T22:15:42.764Z,100399.34
2019-05-23T22:17:50.906Z,100398.84
2019-05-23T22:19:58.594Z,100402.23
2019-05-23T22:22:07.117Z,100405.92
2019-05-23T22:24:15.052Z,100409.91
2019-05-23T22:26:22.718Z,100412.84
2019-05-23T22:28:30.436Z,100410.23
2019-05-23T22:30:38.159Z,100406.80
2019-05-23T22:32:46.522Z,100414.76
2019-05-23T22:35:06.514Z,100400.94
2019-05-23T22:37:20.462Z,100405.91
2019-05-23T22:39:28.412Z,100403.31
2019-05-23T22:41:37.056Z,100403.50
2019-05-23T22:43:44.798Z,100401.41
2019-05-23T22:45:53.067Z,100409.19
2019-05-23T22:48:01.097Z,100415.07
2019-05-23T22:50:08.962Z,100412.83
2019-05-23T22:52:16.541Z,100408.56
2019-05-23T22:54:24.243Z,100412.20
2019-05-23T22:56:31.836Z,100409.00
2019-05-23T22:58:39.476Z,100405.96
2019-05-23T23:00:48.700Z,100406.52
2019-05-23T23:02:56.256Z,100413.57
2019-05-23T23:05:03.727Z,100419.67
2019-05-23T23:07:11.532Z,100416.89
2019-05-23T23:09:19.438Z,100413.44
2019-05-23T23:11:27.017Z,100416.18
2019-05-23T23:13:38.705Z,100419.23
2019-05-23T23:15:44.353Z,100416.09
2019-05-23T23:17:52.265Z,100414.06
2019-05-23T23:19:59.722Z,100413.27
2019-05-23T23:22:10.394Z,100420.38
2019-05-23T23:24:17.938Z,100419.72
2019-05-23T23:26:25.333Z,100419.14
2019-05-23T23:28:33.265Z,100428.81
2019-05-23T23:30:42.443Z,100428.47
2019-05-23T23:32:50.115Z,100431.20
2019-05-23T23:34:57.495Z,100427.36
2019-05-23T23:37:05.071Z,100417.83
2019-05-23T23:39:12.538Z,100419.36
2019-05-23T23:41:19.974Z,100416.94
2019-05-23T23:43:27.437Z,100413.05
2019-05-23T23:45:52.311Z,100414.66
2019-05-23T23:48:17.514Z,100407.89
2019-05-23T23:50:42.544Z,100415.80
2019-05-23T23:53:07.476Z,100409.48
2019-05-23T23:55:32.458Z,100405.41
2019-05-23T23:57:58.102Z,100406.34
